sensor_id;sensor_type;location;lat;lon;timestamp;P1;durP1;ratioP1;P2;durP2;ratioP2
84175;SDS011;74306;40.114;18.304;2024-01-15T00:02:04;11.15;;;6.75;;
84175;SDS011;74306;40.114;18.304;2024-01-15T00:04:37;13.43;;;6.45;;
84175;SDS011;74306;40.114;18.304;2024-01-15T00:07:07;15.50;;;6.13;;
84175;SDS011;74306;40.114;18.304;2024-01-15T00:09:39;14.77;;;5.85;;
84175;SDS011;74306;40.114;18.304;2024-01-15T00:12:08;13.32;;;7.38;;
84175;SDS011;74306;40.114;18.304;2024-01-15T00:14:38;16.02;;;9.25;;
84175;SDS011;74306;40.114;18.304;2024-01-15T00:17:07;15.32;;;8.98;;
84175;SDS011;74306;40.114;18.304;2024-01-15T00:19:38;16.08;;;9.65;;
84175;SDS011;74306;40.114;18.304;2024-01-15T00:22:07;22.00;;;10.38;;
84175;SDS011;74306;40.114;18.304;2024-01-15T00:24:36;18.58;;;10.75;;
84175;SDS011;74306;40.114;18.304;2024-01-15T00:27:06;18.35;;;10.15;;
84175;SDS011;74306;40.114;18.304;2024-01-15T00:29:36;17.35;;;9.95;;
84175;SDS011;74306;40.114;18.304;2024-01-15T00:32:05;14.38;;;8.05;;
84175;SDS011;74306;40.114;18.304;2024-01-15T00:34:35;16.33;;;8.43;;
84175;SDS011;74306;40.114;18.304;2024-01-15T00:37:05;14.43;;;9.02;;
84175;SDS011;74306;40.114;18.304;2024-01-15T00:39:35;16.50;;;8.63;;
84175;SDS011;74306;40.114;18.304;2024-01-15T00:42:04;15.85;;;7.05;;
84175;SDS011;74306;40.114;18.304;2024-01-15T00:44:34;12.55;;;6.28;;
84175;SDS011;74306;40.114;18.304;2024-01-15T00:47:04;16.73;;;6.60;;
84175;SDS011;74306;40.114;18.304;2024-01-15T00:49:33;14.32;;;6.50;;
84175;SDS011;74306;40.114;18.304;2024-01-15T00:52:03;18.25;;;5.50;;
84175;SDS011;74306;40.114;18.304;2024-01-15T00:54:34;12.98;;;5.30;;
84175;SDS011;74306;40.114;18.304;2024-01-15T00:57:03;12.40;;;5.60;;
84175;SDS011;74306;40.114;18.304;2024-01-15T00:59:33;12.50;;;5.22;;
84175;SDS011;74306;40.114;18.304;2024-01-15T01:02:01;11.63;;;4.78;;
84175;SDS011;74306;40.114;18.304;2024-01-15T01:04:31;7.88;;;4.05;;
84175;SDS011;74306;40.114;18.304;2024-01-15T01:07:00;9.65;;;4.20;;
84175;SDS011;74306;40.114;18.304;2024-01-15T01:09:30;9.38;;;3.88;;
84175;SDS011;74306;40.114;18.304;2024-01-15T01:12:00;10.88;;;4.00;;
84175;SDS011;74306;40.114;18.304;2024-01-15T01:14:30;9.98;;;3.95;;
84175;SDS011;74306;40.114;18.304;2024-01-15T01:16:59;10.23;;;4.05;;
84175;SDS011;74306;40.114;18.304;2024-01-15T01:19:28;9.18;;;3.88;;
84175;SDS011;74306;40.114;18.304;2024-01-15T01:21:58;8.57;;;3.60;;
84175;SDS011;74306;40.114;18.304;2024-01-15T01:24:27;11.38;;;4.15;;
84175;SDS011;74306;40.114;18.304;2024-01-15T01:26:56;10.23;;;3.75;;
84175;SDS011;74306;40.114;18.304;2024-01-15T01:29:27;14.45;;;3.80;;
84175;SDS011;74306;40.114;18.304;2024-01-15T01:31:56;11.80;;;3.75;;
84175;SDS011;74306;40.114;18.304;2024-01-15T01:34:26;10.82;;;4.10;;
84175;SDS011;74306;40.114;18.304;2024-01-15T01:36:56;11.38;;;3.90;;
84175;SDS011;74306;40.114;18.304;2024-01-15T01:39:25;9.80;;;3.70;;
84175;SDS011;74306;40.114;18.304;2024-01-15T01:41:55;10.35;;;3.90;;
84175;SDS011;74306;40.114;18.304;2024-01-15T01:44:24;11.98;;;4.00;;
84175;SDS011;74306;40.114;18.304;2024-01-15T01:46:55;10.15;;;4.05;;
84175;SDS011;74306;40.114;18.304;2024-01-15T01:49:25;11.68;;;3.63;;
84175;SDS011;74306;40.114;18.304;2024-01-15T01:51:55;10.63;;;4.03;;
84175;SDS011;74306;40.114;18.304;2024-01-15T01:54:27;9.15;;;3.47;;
84175;SDS011;74306;40.114;18.304;2024-01-15T01:56:58;8.68;;;4.50;;
84175;SDS011;74306;40.114;18.304;2024-01-15T01:59:27;10.23;;;4.40;;
84175;SDS011;74306;40.114;18.304;2024-01-15T02:02:00;12.25;;;4.85;;
84175;SDS011;74306;40.114;18.304;2024-01-15T02:04:31;13.65;;;4.85;;
84175;SDS011;74306;40.114;18.304;2024-01-15T02:07:02;9.30;;;3.95;;
84175;SDS011;74306;40.114;18.304;2024-01-15T02:09:32;13.15;;;4.30;;
84175;SDS011;74306;40.114;18.304;2024-01-15T02:12:01;10.68;;;4.30;;
84175;SDS011;74306;40.114;18.304;2024-01-15T02:14:31;7.45;;;4.03;;
84175;SDS011;74306;40.114;18.304;2024-01-15T02:17:02;12.40;;;4.40;;
84175;SDS011;74306;40.114;18.304;2024-01-15T02:19:31;8.85;;;3.85;;
84175;SDS011;74306;40.114;18.304;2024-01-15T02:22:01;9.75;;;4.30;;
84175;SDS011;74306;40.114;18.304;2024-01-15T02:24:31;10.30;;;4.20;;
84175;SDS011;74306;40.114;18.304;2024-01-15T02:27:01;8.40;;;3.97;;
84175;SDS011;74306;40.114;18.304;2024-01-15T02:29:31;9.48;;;4.10;;
84175;SDS011;74306;40.114;18.304;2024-01-15T02:32:03;14.93;;;4.55;;
84175;SDS011;74306;40.114;18.304;2024-01-15T02:34:33;12.35;;;4.78;;
84175;SDS011;74306;40.114;18.304;2024-01-15T02:37:03;9.20;;;4.00;;
84175;SDS011;74306;40.114;18.304;2024-01-15T02:39:34;10.27;;;3.88;;
84175;SDS011;74306;40.114;18.304;2024-01-15T02:42:04;7.40;;;3.90;;
84175;SDS011;74306;40.114;18.304;2024-01-15T02:44:34;10.65;;;3.75;;
84175;SDS011;74306;40.114;18.304;2024-01-15T02:47:03;12.55;;;4.07;;
84175;SDS011;74306;40.114;18.304;2024-01-15T02:49:33;14.77;;;4.45;;
84175;SDS011;74306;40.114;18.304;2024-01-15T02:52:02;11.35;;;3.88;;
84175;SDS011;74306;40.114;18.304;2024-01-15T02:54:33;13.20;;;4.30;;
84175;SDS011;74306;40.114;18.304;2024-01-15T02:57:03;13.48;;;5.35;;
84175;SDS011;74306;40.114;18.304;2024-01-15T02:59:32;17.05;;;6.43;;
84175;SDS011;74306;40.114;18.304;2024-01-15T03:02:02;18.35;;;7.40;;
84175;SDS011;74306;40.114;18.304;2024-01-15T03:04:31;13.77;;;6.70;;
84175;SDS011;74306;40.114;18.304;2024-01-15T03:07:01;16.20;;;6.85;;
84175;SDS011;74306;40.114;18.304;2024-01-15T03:09:30;17.95;;;6.93;;
84175;SDS011;74306;40.114;18.304;2024-01-15T03:12:01;14.35;;;6.82;;
84175;SDS011;74306;40.114;18.304;2024-01-15T03:14:30;10.82;;;6.43;;
84175;SDS011;74306;40.114;18.304;2024-01-15T03:17:00;13.80;;;6.00;;
84175;SDS011;74306;40.114;18.304;2024-01-15T03:19:30;11.73;;;5.50;;
84175;SDS011;74306;40.114;18.304;2024-01-15T03:21:59;13.13;;;6.18;;
84175;SDS011;74306;40.114;18.304;2024-01-15T03:24:31;9.68;;;5.32;;
84175;SDS011;74306;40.114;18.304;2024-01-15T03:27:02;15.40;;;5.70;;
84175;SDS011;74306;40.114;18.304;2024-01-15T03:29:32;9.98;;;5.57;;
84175;SDS011;74306;40.114;18.304;2024-01-15T03:32:02;12.55;;;5.80;;
84175;SDS011;74306;40.114;18.304;2024-01-15T03:34:31;13.45;;;4.88;;
84175;SDS011;74306;40.114;18.304;2024-01-15T03:37:01;13.13;;;5.15;;
84175;SDS011;74306;40.114;18.304;2024-01-15T03:39:30;11.68;;;4.65;;
84175;SDS011;74306;40.114;18.304;2024-01-15T03:42:02;13.15;;;4.93;;
84175;SDS011;74306;40.114;18.304;2024-01-15T03:44:32;15.20;;;4.30;;
84175;SDS011;74306;40.114;18.304;2024-01-15T03:47:01;10.63;;;4.53;;
84175;SDS011;74306;40.114;18.304;2024-01-15T03:49:31;13.27;;;4.32;;
84175;SDS011;74306;40.114;18.304;2024-01-15T03:52:00;10.52;;;4.00;;
84175;SDS011;74306;40.114;18.304;2024-01-15T03:54:30;9.43;;;3.50;;
84175;SDS011;74306;40.114;18.304;2024-01-15T03:56:59;9.90;;;4.03;;
84175;SDS011;74306;40.114;18.304;2024-01-15T03:59:30;11.52;;;3.92;;
84175;SDS011;74306;40.114;18.304;2024-01-15T04:01:59;11.27;;;3.95;;
84175;SDS011;74306;40.114;18.304;2024-01-15T04:04:28;8.85;;;4.07;;
84175;SDS011;74306;40.114;18.304;2024-01-15T04:06:58;9.25;;;4.10;;
84175;SDS011;74306;40.114;18.304;2024-01-15T04:09:27;13.00;;;5.30;;
84175;SDS011;74306;40.114;18.304;2024-01-15T04:11:56;15.63;;;5.97;;
84175;SDS011;74306;40.114;18.304;2024-01-15T04:14:26;10.55;;;5.68;;
84175;SDS011;74306;40.114;18.304;2024-01-15T04:16:57;13.93;;;6.50;;
84175;SDS011;74306;40.114;18.304;2024-01-15T04:19:27;14.43;;;6.47;;
84175;SDS011;74306;40.114;18.304;2024-01-15T04:21:57;12.18;;;5.78;;
84175;SDS011;74306;40.114;18.304;2024-01-15T04:24:25;9.77;;;4.50;;
84175;SDS011;74306;40.114;18.304;2024-01-15T04:26:54;9.20;;;4.13;;
84175;SDS011;74306;40.114;18.304;2024-01-15T04:29:23;11.02;;;3.78;;
84175;SDS011;74306;40.114;18.304;2024-01-15T04:31:53;10.93;;;4.07;;
84175;SDS011;74306;40.114;18.304;2024-01-15T04:34:23;16.10;;;3.70;;
84175;SDS011;74306;40.114;18.304;2024-01-15T04:36:53;11.23;;;3.63;;
84175;SDS011;74306;40.114;18.304;2024-01-15T04:39:22;9.65;;;3.42;;
84175;SDS011;74306;40.114;18.304;2024-01-15T04:41:52;9.00;;;4.28;;
84175;SDS011;74306;40.114;18.304;2024-01-15T04:44:21;10.85;;;3.80;;
84175;SDS011;74306;40.114;18.304;2024-01-15T04:46:51;13.75;;;3.60;;
84175;SDS011;74306;40.114;18.304;2024-01-15T04:49:20;11.60;;;4.03;;
84175;SDS011;74306;40.114;18.304;2024-01-15T04:51:51;10.20;;;3.72;;
84175;SDS011;74306;40.114;18.304;2024-01-15T04:54:20;8.23;;;3.50;;
84175;SDS011;74306;40.114;18.304;2024-01-15T04:56:49;15.38;;;3.22;;
84175;SDS011;74306;40.114;18.304;2024-01-15T04:59:19;10.63;;;3.17;;
84175;SDS011;74306;40.114;18.304;2024-01-15T05:01:48;15.43;;;2.80;;
84175;SDS011;74306;40.114;18.304;2024-01-15T05:04:17;9.13;;;2.90;;
84175;SDS011;74306;40.114;18.304;2024-01-15T05:06:47;11.15;;;3.22;;
84175;SDS011;74306;40.114;18.304;2024-01-15T05:09:17;8.60;;;2.60;;
84175;SDS011;74306;40.114;18.304;2024-01-15T05:11:47;9.50;;;2.75;;
84175;SDS011;74306;40.114;18.304;2024-01-15T05:14:16;13.00;;;3.90;;
84175;SDS011;74306;40.114;18.304;2024-01-15T05:16:49;9.23;;;3.13;;
84175;SDS011;74306;40.114;18.304;2024-01-15T05:19:18;7.72;;;2.95;;
84175;SDS011;74306;40.114;18.304;2024-01-15T05:21:48;14.90;;;3.22;;
84175;SDS011;74306;40.114;18.304;2024-01-15T05:24:18;10.65;;;3.15;;
84175;SDS011;74306;40.114;18.304;2024-01-15T05:26:48;9.02;;;3.33;;
84175;SDS011;74306;40.114;18.304;2024-01-15T05:29:17;14.02;;;3.00;;
84175;SDS011;74306;40.114;18.304;2024-01-15T05:31:46;8.65;;;3.00;;
84175;SDS011;74306;40.114;18.304;2024-01-15T05:34:16;7.43;;;3.05;;
84175;SDS011;74306;40.114;18.304;2024-01-15T05:36:45;13.57;;;3.00;;
84175;SDS011;74306;40.114;18.304;2024-01-15T05:39:15;7.80;;;2.95;;
84175;SDS011;74306;40.114;18.304;2024-01-15T05:41:47;12.15;;;4.03;;
84175;SDS011;74306;40.114;18.304;2024-01-15T05:44:16;8.07;;;3.25;;
84175;SDS011;74306;40.114;18.304;2024-01-15T05:46:45;11.70;;;3.45;;
84175;SDS011;74306;40.114;18.304;2024-01-15T05:49:14;7.38;;;3.20;;
84175;SDS011;74306;40.114;18.304;2024-01-15T05:51:44;10.73;;;3.30;;
84175;SDS011;74306;40.114;18.304;2024-01-15T05:54:13;13.13;;;3.47;;
84175;SDS011;74306;40.114;18.304;2024-01-15T05:56:42;8.18;;;3.35;;
84175;SDS011;74306;40.114;18.304;2024-01-15T05:59:13;10.38;;;3.28;;
84175;SDS011;74306;40.114;18.304;2024-01-15T06:01:42;9.60;;;2.70;;
84175;SDS011;74306;40.114;18.304;2024-01-15T06:04:12;11.43;;;3.33;;
84175;SDS011;74306;40.114;18.304;2024-01-15T06:06:41;8.75;;;2.97;;
84175;SDS011;74306;40.114;18.304;2024-01-15T06:09:11;8.48;;;2.85;;
84175;SDS011;74306;40.114;18.304;2024-01-15T06:11:40;12.68;;;3.40;;
84175;SDS011;74306;40.114;18.304;2024-01-15T06:14:09;11.02;;;3.47;;
84175;SDS011;74306;40.114;18.304;2024-01-15T06:16:40;9.35;;;2.72;;
84175;SDS011;74306;40.114;18.304;2024-01-15T06:19:09;8.10;;;2.53;;
84175;SDS011;74306;40.114;18.304;2024-01-15T06:21:41;13.82;;;2.75;;
84175;SDS011;74306;40.114;18.304;2024-01-15T06:24:10;10.38;;;2.47;;
84175;SDS011;74306;40.114;18.304;2024-01-15T06:26:41;10.95;;;2.55;;
84175;SDS011;74306;40.114;18.304;2024-01-15T06:29:10;12.43;;;2.67;;
84175;SDS011;74306;40.114;18.304;2024-01-15T06:31:41;10.70;;;2.50;;
84175;SDS011;74306;40.114;18.304;2024-01-15T06:34:10;9.32;;;2.55;;
84175;SDS011;74306;40.114;18.304;2024-01-15T06:36:39;8.73;;;2.33;;
84175;SDS011;74306;40.114;18.304;2024-01-15T06:39:09;8.50;;;2.35;;
84175;SDS011;74306;40.114;18.304;2024-01-15T06:41:38;6.82;;;2.45;;
84175;SDS011;74306;40.114;18.304;2024-01-15T06:44:10;7.65;;;2.58;;
84175;SDS011;74306;40.114;18.304;2024-01-15T06:46:43;8.98;;;2.58;;
84175;SDS011;74306;40.114;18.304;2024-01-15T06:49:12;13.35;;;3.15;;
84175;SDS011;74306;40.114;18.304;2024-01-15T06:51:42;11.52;;;2.85;;
84175;SDS011;74306;40.114;18.304;2024-01-15T06:54:13;6.30;;;2.65;;
84175;SDS011;74306;40.114;18.304;2024-01-15T06:56:42;12.48;;;3.10;;
84175;SDS011;74306;40.114;18.304;2024-01-15T06:59:11;12.95;;;3.05;;
84175;SDS011;74306;40.114;18.304;2024-01-15T07:01:44;12.07;;;2.70;;
84175;SDS011;74306;40.114;18.304;2024-01-15T07:04:13;10.05;;;2.90;;
84175;SDS011;74306;40.114;18.304;2024-01-15T07:06:43;10.77;;;3.00;;
84175;SDS011;74306;40.114;18.304;2024-01-15T07:09:12;8.93;;;3.15;;
84175;SDS011;74306;40.114;18.304;2024-01-15T07:11:44;12.98;;;3.70;;
84175;SDS011;74306;40.114;18.304;2024-01-15T07:14:14;14.55;;;3.72;;
84175;SDS011;74306;40.114;18.304;2024-01-15T07:16:44;10.52;;;3.28;;
84175;SDS011;74306;40.114;18.304;2024-01-15T07:19:14;17.52;;;3.85;;
84175;SDS011;74306;40.114;18.304;2024-01-15T07:21:43;12.80;;;3.58;;
84175;SDS011;74306;40.114;18.304;2024-01-15T07:24:13;14.07;;;3.38;;
84175;SDS011;74306;40.114;18.304;2024-01-15T07:26:42;13.65;;;4.00;;
84175;SDS011;74306;40.114;18.304;2024-01-15T07:29:11;13.68;;;4.30;;
84175;SDS011;74306;40.114;18.304;2024-01-15T07:31:44;16.92;;;4.32;;
84175;SDS011;74306;40.114;18.304;2024-01-15T07:34:17;15.13;;;4.30;;
84175;SDS011;74306;40.114;18.304;2024-01-15T07:36:46;15.40;;;3.92;;
84175;SDS011;74306;40.114;18.304;2024-01-15T07:39:16;13.48;;;3.72;;
84175;SDS011;74306;40.114;18.304;2024-01-15T07:41:45;14.20;;;3.58;;
84175;SDS011;74306;40.114;18.304;2024-01-15T07:44:15;20.10;;;4.20;;
84175;SDS011;74306;40.114;18.304;2024-01-15T07:46:46;15.07;;;3.92;;
84175;SDS011;74306;40.114;18.304;2024-01-15T07:49:15;15.82;;;3.95;;
84175;SDS011;74306;40.114;18.304;2024-01-15T07:51:45;11.50;;;3.03;;
84175;SDS011;74306;40.114;18.304;2024-01-15T07:54:14;11.00;;;3.13;;
84175;SDS011;74306;40.114;18.304;2024-01-15T07:56:53;12.73;;;3.30;;
84175;SDS011;74306;40.114;18.304;2024-01-15T07:59:23;12.25;;;3.33;;
84175;SDS011;74306;40.114;18.304;2024-01-15T08:01:54;10.20;;;3.25;;
84175;SDS011;74306;40.114;18.304;2024-01-15T08:04:23;10.35;;;3.15;;
84175;SDS011;74306;40.114;18.304;2024-01-15T08:06:53;11.85;;;3.22;;
84175;SDS011;74306;40.114;18.304;2024-01-15T08:09:22;14.18;;;3.10;;
84175;SDS011;74306;40.114;18.304;2024-01-15T08:11:52;11.65;;;3.33;;
84175;SDS011;74306;40.114;18.304;2024-01-15T08:14:21;12.48;;;3.42;;
84175;SDS011;74306;40.114;18.304;2024-01-15T08:16:50;10.93;;;3.90;;
84175;SDS011;74306;40.114;18.304;2024-01-15T08:19:21;9.77;;;3.80;;
84175;SDS011;74306;40.114;18.304;2024-01-15T08:21:51;10.32;;;3.70;;
84175;SDS011;74306;40.114;18.304;2024-01-15T08:24:20;14.70;;;3.88;;
84175;SDS011;74306;40.114;18.304;2024-01-15T08:26:50;15.90;;;4.00;;
84175;SDS011;74306;40.114;18.304;2024-01-15T08:29:19;11.70;;;3.90;;
84175;SDS011;74306;40.114;18.304;2024-01-15T08:31:49;12.48;;;3.50;;
84175;SDS011;74306;40.114;18.304;2024-01-15T08:34:18;12.82;;;3.92;;
84175;SDS011;74306;40.114;18.304;2024-01-15T08:36:49;16.67;;;4.00;;
84175;SDS011;74306;40.114;18.304;2024-01-15T08:39:20;10.23;;;4.10;;
84175;SDS011;74306;40.114;18.304;2024-01-15T08:41:49;14.32;;;3.80;;
84175;SDS011;74306;40.114;18.304;2024-01-15T08:44:18;14.65;;;4.03;;
84175;SDS011;74306;40.114;18.304;2024-01-15T08:46:47;11.90;;;3.75;;
84175;SDS011;74306;40.114;18.304;2024-01-15T08:49:17;13.85;;;3.90;;
84175;SDS011;74306;40.114;18.304;2024-01-15T08:51:47;12.88;;;3.53;;
84175;SDS011;74306;40.114;18.304;2024-01-15T08:54:17;15.05;;;3.85;;
84175;SDS011;74306;40.114;18.304;2024-01-15T08:56:46;10.95;;;3.47;;
84175;SDS011;74306;40.114;18.304;2024-01-15T08:59:15;14.10;;;3.95;;
84175;SDS011;74306;40.114;18.304;2024-01-15T09:01:51;14.95;;;3.50;;
84175;SDS011;74306;40.114;18.304;2024-01-15T09:04:21;13.93;;;4.07;;
84175;SDS011;74306;40.114;18.304;2024-01-15T09:06:52;11.75;;;3.78;;
84175;SDS011;74306;40.114;18.304;2024-01-15T09:09:21;13.45;;;3.90;;
84175;SDS011;74306;40.114;18.304;2024-01-15T09:11:52;12.88;;;3.70;;
84175;SDS011;74306;40.114;18.304;2024-01-15T09:14:21;9.70;;;3.72;;
84175;SDS011;74306;40.114;18.304;2024-01-15T09:16:52;15.60;;;3.63;;
84175;SDS011;74306;40.114;18.304;2024-01-15T09:19:22;9.98;;;3.50;;
84175;SDS011;74306;40.114;18.304;2024-01-15T09:21:53;13.10;;;3.10;;
84175;SDS011;74306;40.114;18.304;2024-01-15T09:24:23;11.20;;;3.47;;
84175;SDS011;74306;40.114;18.304;2024-01-15T09:26:52;12.45;;;3.33;;
84175;SDS011;74306;40.114;18.304;2024-01-15T09:29:21;11.35;;;3.25;;
84175;SDS011;74306;40.114;18.304;2024-01-15T09:31:51;12.75;;;3.40;;
84175;SDS011;74306;40.114;18.304;2024-01-15T09:34:21;10.40;;;3.42;;
84175;SDS011;74306;40.114;18.304;2024-01-15T09:36:50;12.68;;;3.10;;
84175;SDS011;74306;40.114;18.304;2024-01-15T09:39:21;17.48;;;3.60;;
84175;SDS011;74306;40.114;18.304;2024-01-15T09:41:50;13.45;;;3.50;;
84175;SDS011;74306;40.114;18.304;2024-01-15T09:44:20;14.00;;;3.85;;
84175;SDS011;74306;40.114;18.304;2024-01-15T09:46:50;11.23;;;3.40;;
84175;SDS011;74306;40.114;18.304;2024-01-15T09:49:22;12.38;;;3.22;;
84175;SDS011;74306;40.114;18.304;2024-01-15T09:51:51;15.63;;;3.58;;
84175;SDS011;74306;40.114;18.304;2024-01-15T09:54:23;12.07;;;3.47;;
84175;SDS011;74306;40.114;18.304;2024-01-15T09:56:53;17.42;;;4.80;;
84175;SDS011;74306;40.114;18.304;2024-01-15T09:59:23;11.00;;;3.75;;
84175;SDS011;74306;40.114;18.304;2024-01-15T10:01:54;18.08;;;4.78;;
84175;SDS011;74306;40.114;18.304;2024-01-15T10:04:25;14.63;;;4.18;;
84175;SDS011;74306;40.114;18.304;2024-01-15T10:06:55;22.73;;;4.57;;
84175;SDS011;74306;40.114;18.304;2024-01-15T10:09:27;12.68;;;3.85;;
84175;SDS011;74306;40.114;18.304;2024-01-15T10:11:57;13.93;;;3.95;;
84175;SDS011;74306;40.114;18.304;2024-01-15T10:14:27;9.13;;;3.47;;
84175;SDS011;74306;40.114;18.304;2024-01-15T10:16:56;11.55;;;3.70;;
84175;SDS011;74306;40.114;18.304;2024-01-15T10:19:26;13.73;;;4.10;;
84175;SDS011;74306;40.114;18.304;2024-01-15T10:21:56;11.38;;;3.35;;
84175;SDS011;74306;40.114;18.304;2024-01-15T10:24:25;12.25;;;3.53;;
84175;SDS011;74306;40.114;18.304;2024-01-15T10:27:04;11.60;;;3.65;;
84175;SDS011;74306;40.114;18.304;2024-01-15T10:29:34;9.00;;;3.10;;
84175;SDS011;74306;40.114;18.304;2024-01-15T10:32:06;8.80;;;3.42;;
84175;SDS011;74306;40.114;18.304;2024-01-15T10:34:39;12.88;;;3.90;;
84175;SDS011;74306;40.114;18.304;2024-01-15T10:37:10;11.15;;;3.47;;
84175;SDS011;74306;40.114;18.304;2024-01-15T10:39:41;10.65;;;3.80;;
84175;SDS011;74306;40.114;18.304;2024-01-15T10:42:11;9.10;;;3.10;;
84175;SDS011;74306;40.114;18.304;2024-01-15T10:44:41;12.70;;;2.90;;
84175;SDS011;74306;40.114;18.304;2024-01-15T10:47:11;9.80;;;2.67;;
84175;SDS011;74306;40.114;18.304;2024-01-15T10:49:40;6.43;;;2.58;;
84175;SDS011;74306;40.114;18.304;2024-01-15T10:52:10;8.43;;;2.72;;
84175;SDS011;74306;40.114;18.304;2024-01-15T10:54:41;7.20;;;2.30;;
84175;SDS011;74306;40.114;18.304;2024-01-15T10:57:11;9.20;;;2.25;;
84175;SDS011;74306;40.114;18.304;2024-01-15T10:59:43;9.85;;;2.42;;
84175;SDS011;74306;40.114;18.304;2024-01-15T11:02:13;8.15;;;2.20;;
84175;SDS011;74306;40.114;18.304;2024-01-15T11:04:44;10.45;;;2.45;;
84175;SDS011;74306;40.114;18.304;2024-01-15T11:07:14;8.35;;;2.22;;
84175;SDS011;74306;40.114;18.304;2024-01-15T11:09:46;8.25;;;2.00;;
84175;SDS011;74306;40.114;18.304;2024-01-15T11:12:17;9.02;;;2.30;;
84175;SDS011;74306;40.114;18.304;2024-01-15T11:14:47;10.18;;;2.30;;
84175;SDS011;74306;40.114;18.304;2024-01-15T11:17:17;9.55;;;2.45;;
84175;SDS011;74306;40.114;18.304;2024-01-15T11:19:47;12.20;;;2.80;;
84175;SDS011;74306;40.114;18.304;2024-01-15T11:25:17;10.48;;;2.88;;
84175;SDS011;74306;40.114;18.304;2024-01-15T11:27:49;10.68;;;3.20;;
84175;SDS011;74306;40.114;18.304;2024-01-15T11:30:19;11.48;;;3.30;;
84175;SDS011;74306;40.114;18.304;2024-01-15T11:32:53;11.52;;;3.05;;
84175;SDS011;74306;40.114;18.304;2024-01-15T11:35:22;13.18;;;3.40;;
84175;SDS011;74306;40.114;18.304;2024-01-15T11:38:12;12.57;;;3.55;;
84175;SDS011;74306;40.114;18.304;2024-01-15T11:40:56;9.23;;;2.85;;
84175;SDS011;74306;40.114;18.304;2024-01-15T11:43:29;11.15;;;3.00;;
84175;SDS011;74306;40.114;18.304;2024-01-15T11:46:01;10.38;;;3.63;;
84175;SDS011;74306;40.114;18.304;2024-01-15T11:48:34;9.05;;;3.60;;
84175;SDS011;74306;40.114;18.304;2024-01-15T11:51:12;11.35;;;3.60;;
84175;SDS011;74306;40.114;18.304;2024-01-15T11:53:43;10.82;;;2.42;;
84175;SDS011;74306;40.114;18.304;2024-01-15T11:56:17;11.20;;;2.65;;
84175;SDS011;74306;40.114;18.304;2024-01-15T11:58:49;9.77;;;2.65;;
84175;SDS011;74306;40.114;18.304;2024-01-15T12:01:19;7.38;;;2.33;;
84175;SDS011;74306;40.114;18.304;2024-01-15T12:03:48;9.23;;;2.60;;
84175;SDS011;74306;40.114;18.304;2024-01-15T12:06:17;9.68;;;3.05;;
84175;SDS011;74306;40.114;18.304;2024-01-15T12:08:47;12.65;;;2.97;;
84175;SDS011;74306;40.114;18.304;2024-01-15T12:11:17;9.25;;;2.25;;
84175;SDS011;74306;40.114;18.304;2024-01-15T12:13:51;7.90;;;2.05;;
84175;SDS011;74306;40.114;18.304;2024-01-15T12:16:22;10.25;;;2.03;;
84175;SDS011;74306;40.114;18.304;2024-01-15T12:18:51;9.88;;;2.40;;
84175;SDS011;74306;40.114;18.304;2024-01-15T12:21:21;9.15;;;2.30;;
84175;SDS011;74306;40.114;18.304;2024-01-15T12:23:50;9.55;;;2.25;;
84175;SDS011;74306;40.114;18.304;2024-01-15T12:26:21;9.48;;;2.25;;
84175;SDS011;74306;40.114;18.304;2024-01-15T12:28:50;12.93;;;2.72;;
84175;SDS011;74306;40.114;18.304;2024-01-15T12:31:21;11.85;;;2.40;;
84175;SDS011;74306;40.114;18.304;2024-01-15T12:33:50;11.35;;;2.75;;
84175;SDS011;74306;40.114;18.304;2024-01-15T12:36:20;10.30;;;2.47;;
84175;SDS011;74306;40.114;18.304;2024-01-15T12:38:49;10.98;;;2.70;;
84175;SDS011;74306;40.114;18.304;2024-01-15T12:41:20;10.32;;;3.00;;
84175;SDS011;74306;40.114;18.304;2024-01-15T12:43:50;11.45;;;3.33;;
84175;SDS011;74306;40.114;18.304;2024-01-15T12:46:20;10.63;;;3.50;;
84175;SDS011;74306;40.114;18.304;2024-01-15T12:48:49;12.95;;;3.35;;
84175;SDS011;74306;40.114;18.304;2024-01-15T12:51:19;11.40;;;3.08;;
84175;SDS011;74306;40.114;18.304;2024-01-15T12:53:53;13.55;;;3.17;;
84175;SDS011;74306;40.114;18.304;2024-01-15T12:56:24;12.93;;;3.05;;
84175;SDS011;74306;40.114;18.304;2024-01-15T12:58:53;11.48;;;3.45;;
84175;SDS011;74306;40.114;18.304;2024-01-15T13:01:23;14.05;;;2.85;;
84175;SDS011;74306;40.114;18.304;2024-01-15T13:03:52;10.80;;;2.72;;
84175;SDS011;74306;40.114;18.304;2024-01-15T13:06:22;10.88;;;3.10;;
84175;SDS011;74306;40.114;18.304;2024-01-15T13:08:51;11.25;;;3.00;;
84175;SDS011;74306;40.114;18.304;2024-01-15T13:11:20;15.82;;;3.22;;
84175;SDS011;74306;40.114;18.304;2024-01-15T13:13:51;13.18;;;3.38;;
84175;SDS011;74306;40.114;18.304;2024-01-15T13:16:20;10.38;;;3.03;;
84175;SDS011;74306;40.114;18.304;2024-01-15T13:18:51;10.90;;;3.00;;
84175;SDS011;74306;40.114;18.304;2024-01-15T13:21:20;8.55;;;2.72;;
84175;SDS011;74306;40.114;18.304;2024-01-15T13:23:50;14.68;;;3.28;;
84175;SDS011;74306;40.114;18.304;2024-01-15T13:26:19;10.07;;;2.90;;
84175;SDS011;74306;40.114;18.304;2024-01-15T13:28:48;14.07;;;3.25;;
84175;SDS011;74306;40.114;18.304;2024-01-15T13:31:20;15.45;;;3.20;;
84175;SDS011;74306;40.114;18.304;2024-01-15T13:33:50;9.43;;;2.95;;
84175;SDS011;74306;40.114;18.304;2024-01-15T13:36:19;13.40;;;2.97;;
84175;SDS011;74306;40.114;18.304;2024-01-15T13:38:48;15.93;;;2.83;;
84175;SDS011;74306;40.114;18.304;2024-01-15T13:41:18;10.07;;;2.92;;
84175;SDS011;74306;40.114;18.304;2024-01-15T13:43:50;12.65;;;2.95;;
84175;SDS011;74306;40.114;18.304;2024-01-15T13:46:20;9.38;;;2.78;;
84175;SDS011;74306;40.114;18.304;2024-01-15T13:48:52;12.63;;;3.50;;
84175;SDS011;74306;40.114;18.304;2024-01-15T13:51:22;10.30;;;3.00;;
84175;SDS011;74306;40.114;18.304;2024-01-15T13:53:51;11.63;;;3.90;;
84175;SDS011;74306;40.114;18.304;2024-01-15T13:56:21;12.07;;;3.17;;
84175;SDS011;74306;40.114;18.304;2024-01-15T13:58:52;15.15;;;3.53;;
84175;SDS011;74306;40.114;18.304;2024-01-15T14:01:22;12.57;;;3.97;;
84175;SDS011;74306;40.114;18.304;2024-01-15T14:03:51;14.55;;;3.85;;
84175;SDS011;74306;40.114;18.304;2024-01-15T14:06:20;17.45;;;4.38;;
84175;SDS011;74306;40.114;18.304;2024-01-15T14:08:51;14.38;;;3.80;;
84175;SDS011;74306;40.114;18.304;2024-01-15T14:11:20;13.10;;;4.20;;
84175;SDS011;74306;40.114;18.304;2024-01-15T14:13:51;12.98;;;3.58;;
84175;SDS011;74306;40.114;18.304;2024-01-15T14:16:21;18.52;;;4.15;;
84175;SDS011;74306;40.114;18.304;2024-01-15T14:18:50;14.88;;;4.20;;
84175;SDS011;74306;40.114;18.304;2024-01-15T14:21:19;18.80;;;4.68;;
84175;SDS011;74306;40.114;18.304;2024-01-15T14:23:49;16.88;;;5.28;;
84175;SDS011;74306;40.114;18.304;2024-01-15T14:26:18;17.58;;;6.13;;
84175;SDS011;74306;40.114;18.304;2024-01-15T14:28:47;16.05;;;5.55;;
84175;SDS011;74306;40.114;18.304;2024-01-15T14:31:19;12.43;;;5.35;;
84175;SDS011;74306;40.114;18.304;2024-01-15T14:33:48;12.20;;;4.82;;
84175;SDS011;74306;40.114;18.304;2024-01-15T14:36:18;13.48;;;4.70;;
84175;SDS011;74306;40.114;18.304;2024-01-15T14:38:47;14.70;;;5.22;;
84175;SDS011;74306;40.114;18.304;2024-01-15T14:41:17;19.83;;;5.43;;
84175;SDS011;74306;40.114;18.304;2024-01-15T14:43:46;15.35;;;5.30;;